Time;durP1;ratioP1;P1;durP2;ratioP2;P2;SDS_P1;SDS_P2;PMS_P1;PMS_P2;Temp;Humidity;BMP_temperature;BMP_pressure;BME280_temperature;BME280_humidity;BME280_pressure;Samples;Min_cycle;Max_cycle;Signal;HPM_P1;HPM_P2
2024/01/09 00:01:59;;;;;;;6.20;2.30;;;;;;;;;;5051458;28;20055;-66
2024/01/09 00:04:25;;;;;;;7.63;2.10;;;;;;;;;;5050593;28;20594;-66
2024/01/09 00:06:51;;;;;;;5.82;1.77;;;;;;;;;;5047338;28;20616;-66
2024/01/09 00:09:17;;;;;;;6.60;2.20;;;;;;;;;;5052112;28;20559;-66
2024/01/09 00:11:43;;;;;;;4.95;2.33;;;;;;;;;;5050439;28;20033;-66
2024/01/09 00:14:11;;;;;;;5.95;2.28;;;;;;;;;;5050887;28;20025;-66
2024/01/09 00:16:37;;;;;;;5.93;2.38;;;;;;;;;;5050887;28;20188;-66
2024/01/09 00:19:04;;;;;;;7.82;2.33;;;;;;;;;;5050351;28;20872;-66
2024/01/09 00:21:30;;;;;;;6.88;1.98;;;;;;;;;;5051070;28;20032;-66
2024/01/09 00:23:56;;;;;;;5.75;2.25;;;;;;;;;;5050812;28;20040;-66
2024/01/09 00:26:22;;;;;;;7.85;2.42;;;;;;;;;;5051434;28;20037;-66
2024/01/09 00:28:48;;;;;;;8.00;2.42;;;;;;;;;;5050628;28;20947;-66
2024/01/09 00:31:14;;;;;;;6.88;2.25;;;;;;;;;;5050924;28;20101;-66
2024/01/09 00:33:41;;;;;;;5.78;2.25;;;;;;;;;;5052262;28;20036;-66
2024/01/09 00:36:07;;;;;;;5.97;2.30;;;;;;;;;;5050271;28;20237;-66
2024/01/09 00:38:33;;;;;;;5.35;2.17;;;;;;;;;;5048578;28;20435;-66
2024/01/09 00:40:59;;;;;;;6.60;2.35;;;;;;;;;;5050444;28;20166;-67
2024/01/09 00:43:25;;;;;;;7.25;2.13;;;;;;;;;;5049705;28;20122;-66
2024/01/09 00:45:51;;;;;;;5.70;2.35;;;;;;;;;;5051035;28;20055;-67
2024/01/09 00:48:17;;;;;;;5.60;2.17;;;;;;;;;;5050430;28;20144;-66
2024/01/09 00:50:43;;;;;;;6.22;2.25;;;;;;;;;;5050609;28;20037;-66
2024/01/09 00:53:10;;;;;;;7.15;2.28;;;;;;;;;;5050366;28;20136;-67
2024/01/09 00:55:36;;;;;;;7.95;2.38;;;;;;;;;;5049128;28;20046;-66
2024/01/09 00:58:02;;;;;;;11.38;2.42;;;;;;;;;;5049458;28;20040;-66
2024/01/09 01:00:28;;;;;;;7.97;2.30;;;;;;;;;;5051674;28;20044;-66
2024/01/09 01:02:54;;;;;;;5.10;2.53;;;;;;;;;;5048632;28;20043;-66
2024/01/09 01:05:20;;;;;;;5.25;2.08;;;;;;;;;;5051276;28;20101;-66
2024/01/09 01:07:46;;;;;;;5.32;2.03;;;;;;;;;;5050668;28;20051;-67
2024/01/09 01:10:13;;;;;;;5.72;2.20;;;;;;;;;;5050197;28;20053;-66
2024/01/09 01:12:39;;;;;;;5.45;2.20;;;;;;;;;;5049673;28;20029;-66
2024/01/09 01:15:06;;;;;;;7.63;3.25;;;;;;;;;;5049983;28;20020;-67
2024/01/09 01:17:32;;;;;;;6.28;2.42;;;;;;;;;;5049788;28;20036;-66
2024/01/09 01:19:58;;;;;;;6.28;2.03;;;;;;;;;;5050118;28;20024;-66
2024/01/09 01:22:24;;;;;;;7.43;2.10;;;;;;;;;;5050532;28;20024;-66
2024/01/09 01:24:50;;;;;;;5.93;2.45;;;;;;;;;;5048893;28;20074;-67
2024/01/09 01:27:16;;;;;;;5.97;2.50;;;;;;;;;;5062882;28;20032;-66
2024/01/09 01:29:43;;;;;;;7.10;2.35;;;;;;;;;;5050680;28;20033;-66
2024/01/09 01:32:10;;;;;;;7.60;2.28;;;;;;;;;;5048519;28;20115;-66
2024/01/09 01:34:39;;;;;;;7.47;2.42;;;;;;;;;;5050258;28;20128;-66
2024/01/09 01:37:05;;;;;;;5.47;2.38;;;;;;;;;;5050446;28;20025;-67
2024/01/09 01:39:31;;;;;;;6.75;2.38;;;;;;;;;;5050154;28;20391;-66
2024/01/09 01:41:57;;;;;;;6.50;2.30;;;;;;;;;;5048980;28;20028;-67
2024/01/09 01:44:23;;;;;;;6.85;2.92;;;;;;;;;;5049334;28;20736;-67
2024/01/09 01:46:49;;;;;;;10.48;2.65;;;;;;;;;;5049549;28;20036;-67
2024/01/09 01:49:17;;;;;;;7.47;2.78;;;;;;;;;;5047752;28;20154;-66
2024/01/09 01:51:44;;;;;;;5.28;2.25;;;;;;;;;;5049981;28;20020;-66
2024/01/09 01:54:12;;;;;;;6.22;2.03;;;;;;;;;;5048335;28;20024;-66
2024/01/09 01:56:38;;;;;;;5.50;1.83;;;;;;;;;;5050181;28;20033;-67
2024/01/09 01:59:04;;;;;;;7.50;2.50;;;;;;;;;;5051104;28;20060;-67
2024/01/09 02:01:30;;;;;;;5.20;1.80;;;;;;;;;;5049975;28;20029;-67
2024/01/09 02:03:56;;;;;;;7.88;2.50;;;;;;;;;;5064292;28;20043;-67
2024/01/09 02:06:23;;;;;;;6.15;2.05;;;;;;;;;;5049328;28;20039;-67
2024/01/09 02:08:49;;;;;;;6.50;2.58;;;;;;;;;;5050649;28;20554;-67
2024/01/09 02:11:15;;;;;;;6.57;2.28;;;;;;;;;;5050149;28;20364;-67
2024/01/09 02:13:41;;;;;;;6.32;2.40;;;;;;;;;;5050090;28;20035;-67
2024/01/09 02:16:07;;;;;;;6.93;2.40;;;;;;;;;;5050284;28;20028;-67
2024/01/09 02:18:33;;;;;;;7.38;2.20;;;;;;;;;;5050176;28;20028;-67
2024/01/09 02:20:59;;;;;;;8.90;2.83;;;;;;;;;;5050533;28;20052;-67
2024/01/09 02:23:25;;;;;;;6.18;2.38;;;;;;;;;;5049777;28;20059;-67
2024/01/09 02:25:52;;;;;;;5.57;2.30;;;;;;;;;;5048468;28;20063;-67
2024/01/09 02:28:30;;;;;;;6.72;2.10;;;;;;;;;;5049889;28;20086;-67
2024/01/09 02:30:56;;;;;;;8.68;2.40;;;;;;;;;;5049609;28;20713;-67
2024/01/09 02:33:22;;;;;;;10.50;2.60;;;;;;;;;;5049982;28;20029;-67
2024/01/09 02:35:48;;;;;;;8.27;2.35;;;;;;;;;;5049847;28;21380;-67
2024/01/09 02:38:14;;;;;;;6.72;2.10;;;;;;;;;;5049792;28;20710;-67
2024/01/09 02:40:40;;;;;;;5.63;1.98;;;;;;;;;;5048954;28;20192;-67
2024/01/09 02:43:06;;;;;;;6.72;2.25;;;;;;;;;;5051550;28;20586;-67
2024/01/09 02:45:33;;;;;;;5.80;2.53;;;;;;;;;;5048882;28;20492;-67
2024/01/09 02:47:59;;;;;;;6.78;1.88;;;;;;;;;;5050149;28;21614;-67
2024/01/09 02:50:25;;;;;;;5.55;2.35;;;;;;;;;;5049714;28;20725;-67
2024/01/09 02:52:51;;;;;;;6.18;2.10;;;;;;;;;;5049656;28;20480;-67
2024/01/09 02:55:17;;;;;;;4.90;1.98;;;;;;;;;;5050122;28;20031;-67
2024/01/09 02:57:43;;;;;;;6.30;2.53;;;;;;;;;;5048306;28;20067;-67
2024/01/09 03:00:09;;;;;;;5.15;2.00;;;;;;;;;;5048868;28;20047;-67
2024/01/09 03:02:35;;;;;;;5.82;2.50;;;;;;;;;;5048548;28;20051;-67
2024/01/09 03:05:02;;;;;;;6.05;2.40;;;;;;;;;;5047777;28;20036;-67
2024/01/09 03:07:28;;;;;;;7.47;2.53;;;;;;;;;;5049013;28;20071;-67
2024/01/09 03:09:55;;;;;;;4.60;1.73;;;;;;;;;;5064821;28;20570;-67
2024/01/09 03:12:21;;;;;;;7.80;2.83;;;;;;;;;;5048293;28;20028;-67
2024/01/09 03:14:47;;;;;;;5.55;2.35;;;;;;;;;;5049034;28;20028;-67
2024/01/09 03:17:13;;;;;;;5.88;2.58;;;;;;;;;;5047524;28;20044;-67
2024/01/09 03:19:39;;;;;;;8.32;3.00;;;;;;;;;;5048698;28;20041;-67
2024/01/09 03:22:05;;;;;;;7.70;2.58;;;;;;;;;;5047938;28;20028;-67
2024/01/09 03:24:31;;;;;;;5.43;1.92;;;;;;;;;;5047760;28;20093;-67
2024/01/09 03:26:57;;;;;;;6.70;2.38;;;;;;;;;;5047774;28;20028;-67
2024/01/09 03:29:23;;;;;;;4.88;1.80;;;;;;;;;;5047669;28;20035;-67
2024/01/09 03:31:50;;;;;;;5.72;2.10;;;;;;;;;;5048339;28;20088;-67
2024/01/09 03:34:16;;;;;;;4.68;1.98;;;;;;;;;;5048628;28;20111;-67
2024/01/09 03:36:45;;;;;;;9.10;2.38;;;;;;;;;;5048732;28;20048;-67
2024/01/09 03:39:14;;;;;;;6.25;2.42;;;;;;;;;;5048289;28;20036;-67
2024/01/09 03:41:41;;;;;;;7.65;2.30;;;;;;;;;;5048153;28;20047;-67
2024/01/09 03:44:07;;;;;;;4.95;1.75;;;;;;;;;;5048026;28;20115;-67
2024/01/09 03:46:33;;;;;;;6.85;2.00;;;;;;;;;;5061134;28;20123;-67
2024/01/09 03:48:59;;;;;;;5.88;1.90;;;;;;;;;;5051778;28;20111;-67
2024/01/09 03:51:25;;;;;;;6.10;2.50;;;;;;;;;;5051828;28;20024;-67
2024/01/09 03:53:51;;;;;;;5.88;2.15;;;;;;;;;;5052265;28;20055;-67
2024/01/09 03:56:17;;;;;;;5.30;2.17;;;;;;;;;;5050775;28;20097;-67
2024/01/09 03:58:43;;;;;;;6.40;2.30;;;;;;;;;;5065813;28;20032;-67
2024/01/09 04:01:10;;;;;;;6.28;2.10;;;;;;;;;;5050566;28;20064;-67
2024/01/09 04:03:36;;;;;;;5.45;2.22;;;;;;;;;;5050695;28;20075;-67
2024/01/09 04:06:02;;;;;;;5.57;2.10;;;;;;;;;;5051310;28;20826;-67
2024/01/09 04:08:28;;;;;;;6.63;2.47;;;;;;;;;;5051673;28;21215;-67
2024/01/09 04:10:54;;;;;;;7.43;1.95;;;;;;;;;;5052155;28;21633;-67
2024/01/09 04:13:21;;;;;;;4.97;2.03;;;;;;;;;;5051864;28;20937;-67
2024/01/09 04:15:47;;;;;;;6.93;2.25;;;;;;;;;;5051419;28;20099;-67
2024/01/09 04:18:13;;;;;;;6.25;2.42;;;;;;;;;;5050441;28;20036;-67
2024/01/09 04:20:42;;;;;;;5.30;2.20;;;;;;;;;;5050905;28;20128;-67
2024/01/09 04:23:08;;;;;;;5.70;2.13;;;;;;;;;;5051643;28;20137;-67
2024/01/09 04:25:34;;;;;;;5.43;2.17;;;;;;;;;;5051860;28;20610;-67
2024/01/09 04:28:00;;;;;;;8.13;2.50;;;;;;;;;;5050983;28;20083;-67
2024/01/09 04:30:26;;;;;;;4.70;2.00;;;;;;;;;;5050742;28;20060;-67
2024/01/09 04:32:53;;;;;;;4.10;1.90;;;;;;;;;;5050321;28;22117;-67
2024/01/09 04:35:19;;;;;;;6.53;2.38;;;;;;;;;;5050851;28;20063;-67
2024/01/09 04:37:45;;;;;;;4.82;1.90;;;;;;;;;;5050967;28;20032;-67
2024/01/09 04:40:11;;;;;;;5.47;1.98;;;;;;;;;;5051796;28;20500;-67
2024/01/09 04:42:37;;;;;;;5.55;2.42;;;;;;;;;;5051195;28;20108;-67
2024/01/09 04:45:03;;;;;;;4.57;2.03;;;;;;;;;;5050772;28;20760;-67
2024/01/09 04:47:30;;;;;;;6.85;2.55;;;;;;;;;;5049559;28;20048;-67
2024/01/09 04:49:56;;;;;;;5.30;2.13;;;;;;;;;;5050190;28;20131;-67
2024/01/09 04:52:22;;;;;;;5.00;2.30;;;;;;;;;;5050090;28;20260;-67
2024/01/09 04:54:48;;;;;;;5.68;2.20;;;;;;;;;;5050876;28;20041;-67
2024/01/09 04:57:14;;;;;;;5.60;2.13;;;;;;;;;;5050432;28;20032;-67
2024/01/09 04:59:42;;;;;;;7.38;2.15;;;;;;;;;;5050197;28;20032;-67
2024/01/09 05:02:08;;;;;;;6.85;2.45;;;;;;;;;;5050806;28;20033;-67
2024/01/09 05:04:34;;;;;;;6.15;2.33;;;;;;;;;;5051012;28;20028;-67
2024/01/09 05:07:00;;;;;;;6.45;2.60;;;;;;;;;;5048093;28;20051;-68
2024/01/09 05:09:26;;;;;;;6.97;2.30;;;;;;;;;;5050225;28;20098;-68
2024/01/09 05:11:52;;;;;;;7.50;2.70;;;;;;;;;;5050085;28;20040;-68
2024/01/09 05:14:19;;;;;;;5.47;2.22;;;;;;;;;;5051358;28;20060;-68
2024/01/09 05:16:45;;;;;;;6.95;2.45;;;;;;;;;;5050120;28;20032;-68
2024/01/09 05:19:11;;;;;;;6.90;2.65;;;;;;;;;;5050787;28;20047;-68
2024/01/09 05:21:37;;;;;;;5.57;2.50;;;;;;;;;;5050001;28;20036;-68
2024/01/09 05:24:03;;;;;;;4.75;2.38;;;;;;;;;;5048478;28;20037;-68
2024/01/09 05:26:29;;;;;;;6.15;2.00;;;;;;;;;;5050538;28;20032;-68
2024/01/09 05:28:55;;;;;;;5.65;2.50;;;;;;;;;;5049494;28;20028;-68
2024/01/09 05:31:21;;;;;;;6.15;2.05;;;;;;;;;;5049300;28;20021;-68
2024/01/09 05:33:47;;;;;;;6.72;2.50;;;;;;;;;;5050222;28;20186;-68
2024/01/09 05:36:18;;;;;;;6.15;2.17;;;;;;;;;;5050763;28;20086;-68
2024/01/09 05:38:44;;;;;;;7.68;2.47;;;;;;;;;;5050472;28;20063;-68
2024/01/09 05:41:18;;;;;;;6.93;2.50;;;;;;;;;;5048433;28;20086;-68
2024/01/09 05:43:44;;;;;;;7.00;2.70;;;;;;;;;;5050079;28;20036;-68
2024/01/09 05:46:10;;;;;;;5.40;2.13;;;;;;;;;;5050417;28;20040;-68
2024/01/09 05:48:36;;;;;;;5.43;2.25;;;;;;;;;;5049386;28;20094;-68
2024/01/09 05:51:03;;;;;;;6.55;2.20;;;;;;;;;;5049426;28;20032;-68
2024/01/09 05:53:29;;;;;;;5.78;2.80;;;;;;;;;;5050401;28;20778;-68
2024/01/09 05:55:55;;;;;;;6.78;2.75;;;;;;;;;;5048494;28;20036;-68
2024/01/09 05:58:21;;;;;;;4.85;2.30;;;;;;;;;;5050202;28;20036;-68
2024/01/09 06:00:47;;;;;;;6.93;2.63;;;;;;;;;;5047427;28;20538;-68
2024/01/09 06:03:13;;;;;;;5.68;2.05;;;;;;;;;;5044236;28;20038;-68
2024/01/09 06:05:39;;;;;;;5.68;2.10;;;;;;;;;;5045572;28;20049;-68
2024/01/09 06:08:05;;;;;;;6.03;2.72;;;;;;;;;;5046501;28;20752;-68
2024/01/09 06:10:31;;;;;;;6.22;3.03;;;;;;;;;;5044996;28;20044;-68
2024/01/09 06:12:57;;;;;;;6.38;2.55;;;;;;;;;;5048550;28;20031;-68
2024/01/09 06:15:23;;;;;;;7.18;2.45;;;;;;;;;;5048093;28;20388;-68
2024/01/09 06:17:50;;;;;;;5.60;1.95;;;;;;;;;;5047950;28;20035;-69
2024/01/09 06:20:16;;;;;;;7.03;2.75;;;;;;;;;;5049272;28;20040;-69
2024/01/09 06:22:42;;;;;;;6.50;2.78;;;;;;;;;;5049224;28;20051;-68
2024/01/09 06:25:08;;;;;;;5.85;1.92;;;;;;;;;;5046173;28;20028;-69
2024/01/09 06:27:34;;;;;;;6.55;2.42;;;;;;;;;;5048381;28;20045;-69
2024/01/09 06:30:00;;;;;;;5.80;2.83;;;;;;;;;;5049998;28;20033;-69
2024/01/09 06:32:26;;;;;;;6.13;2.10;;;;;;;;;;5048440;28;20044;-68
2024/01/09 06:34:52;;;;;;;6.20;2.55;;;;;;;;;;5048308;28;20032;-69
2024/01/09 06:37:18;;;;;;;7.90;3.17;;;;;;;;;;5046600;28;20039;-70
2024/01/09 06:39:44;;;;;;;6.13;2.55;;;;;;;;;;5050025;28;20047;-69
2024/01/09 06:42:11;;;;;;;9.00;2.70;;;;;;;;;;5046526;28;20036;-69
2024/01/09 06:44:37;;;;;;;6.97;2.60;;;;;;;;;;5043942;28;20045;-69
2024/01/09 06:47:03;;;;;;;8.23;3.10;;;;;;;;;;5046637;28;20678;-69
2024/01/09 06:49:29;;;;;;;5.93;2.53;;;;;;;;;;5047544;28;20044;-69
2024/01/09 06:51:55;;;;;;;8.27;2.60;;;;;;;;;;5046320;28;20563;-69
2024/01/09 06:54:21;;;;;;;6.00;2.65;;;;;;;;;;5047936;28;20057;-69
2024/01/09 06:56:47;;;;;;;7.82;2.72;;;;;;;;;;5047344;28;20029;-69
2024/01/09 06:59:13;;;;;;;8.52;3.40;;;;;;;;;;5049119;28;20586;-69
2024/01/09 07:01:39;;;;;;;9.10;2.70;;;;;;;;;;5048594;28;20032;-69
2024/01/09 07:04:08;;;;;;;6.88;2.75;;;;;;;;;;5047843;28;20028;-69
2024/01/09 07:06:35;;;;;;;7.13;2.40;;;;;;;;;;5047799;28;20122;-69
2024/01/09 07:09:01;;;;;;;7.57;2.40;;;;;;;;;;5049005;28;20033;-70
2024/01/09 07:11:27;;;;;;;8.07;2.88;;;;;;;;;;5048762;28;20032;-68
2024/01/09 07:13:53;;;;;;;5.60;2.55;;;;;;;;;;5048818;28;20020;-70
2024/01/09 07:16:19;;;;;;;9.73;2.55;;;;;;;;;;5047418;28;20092;-70
2024/01/09 07:18:45;;;;;;;6.85;2.90;;;;;;;;;;5048583;28;20066;-69
2024/01/09 07:21:11;;;;;;;5.95;2.28;;;;;;;;;;5049460;28;20056;-70
2024/01/09 07:23:38;;;;;;;9.55;2.75;;;;;;;;;;5053155;28;20109;-70
2024/01/09 07:26:04;;;;;;;6.35;2.47;;;;;;;;;;5052789;28;20028;-70
2024/01/09 07:28:30;;;;;;;6.18;2.70;;;;;;;;;;5052160;28;20033;-70
2024/01/09 07:30:56;;;;;;;8.70;2.90;;;;;;;;;;5053496;28;20754;-70
2024/01/09 07:33:22;;;;;;;5.88;2.08;;;;;;;;;;5053078;28;20099;-70
2024/01/09 07:35:48;;;;;;;6.00;2.67;;;;;;;;;;5061441;28;20044;-70
2024/01/09 07:38:21;;;;;;;6.03;2.53;;;;;;;;;;5053615;28;20113;-69
2024/01/09 07:40:47;;;;;;;6.57;2.72;;;;;;;;;;5053014;28;20032;-70
2024/01/09 07:43:13;;;;;;;6.05;2.58;;;;;;;;;;5052658;28;20033;-70
2024/01/09 07:45:39;;;;;;;6.88;2.85;;;;;;;;;;5052333;28;20044;-70
2024/01/09 07:48:05;;;;;;;6.50;2.63;;;;;;;;;;5053292;28;20036;-70
2024/01/09 07:50:32;;;;;;;6.05;2.55;;;;;;;;;;5052706;28;20044;-70
2024/01/09 07:52:58;;;;;;;5.70;1.92;;;;;;;;;;5053254;28;20055;-70
2024/01/09 07:55:25;;;;;;;6.00;2.33;;;;;;;;;;5066639;28;20040;-70
2024/01/09 07:57:51;;;;;;;7.65;2.80;;;;;;;;;;5052159;28;20536;-70
2024/01/09 08:00:17;;;;;;;8.57;2.63;;;;;;;;;;5053623;28;20039;-69
2024/01/09 08:02:43;;;;;;;8.20;2.78;;;;;;;;;;5052774;28;20043;-69
2024/01/09 08:05:09;;;;;;;7.90;2.03;;;;;;;;;;5052863;28;20037;-67
2024/01/09 08:07:36;;;;;;;8.27;2.75;;;;;;;;;;5053567;28;20042;-69
2024/01/09 08:10:02;;;;;;;6.10;2.60;;;;;;;;;;5050740;28;20141;-69
2024/01/09 08:12:28;;;;;;;7.78;2.72;;;;;;;;;;5053155;28;20028;-69
2024/01/09 08:14:54;;;;;;;5.95;2.75;;;;;;;;;;5052635;28;20043;-69
2024/01/09 08:17:20;;;;;;;8.23;3.22;;;;;;;;;;5053114;28;20036;-69
2024/01/09 08:19:46;;;;;;;6.47;2.85;;;;;;;;;;5052983;28;20411;-69
2024/01/09 08:22:12;;;;;;;6.38;2.85;;;;;;;;;;5052628;28;20025;-69
2024/01/09 08:24:38;;;;;;;7.15;2.95;;;;;;;;;;5051718;28;20068;-69
2024/01/09 08:27:04;;;;;;;7.95;3.05;;;;;;;;;;5052102;28;21827;-69
2024/01/09 08:29:31;;;;;;;7.03;3.13;;;;;;;;;;5053137;28;20029;-70
2024/01/09 08:31:57;;;;;;;5.75;2.55;;;;;;;;;;5052085;28;20667;-67
2024/01/09 08:34:23;;;;;;;7.45;2.90;;;;;;;;;;5052887;28;20029;-68
2024/01/09 08:36:49;;;;;;;6.10;2.45;;;;;;;;;;5052186;28;20038;-68
2024/01/09 08:39:15;;;;;;;6.63;2.63;;;;;;;;;;5051868;28;20032;-68
2024/01/09 08:41:42;;;;;;;8.48;3.78;;;;;;;;;;5052387;28;20020;-68
2024/01/09 08:44:08;;;;;;;6.97;2.85;;;;;;;;;;5051708;28;20032;-68
2024/01/09 08:46:35;;;;;;;7.72;3.00;;;;;;;;;;5052607;28;20025;-67
2024/01/09 08:49:01;;;;;;;8.00;2.67;;;;;;;;;;5052308;28;20028;-69
2024/01/09 08:51:27;;;;;;;6.35;2.78;;;;;;;;;;5052630;28;20055;-68
2024/01/09 08:53:56;;;;;;;10.13;3.13;;;;;;;;;;5051303;28;20554;-67
2024/01/09 08:56:22;;;;;;;6.60;2.38;;;;;;;;;;5052653;28;20036;-68
2024/01/09 08:58:49;;;;;;;6.32;2.53;;;;;;;;;;5056195;28;20027;-67
2024/01/09 09:01:21;;;;;;;6.25;2.28;;;;;;;;;;5055333;28;20081;-68
2024/01/09 09:03:48;;;;;;;6.60;2.60;;;;;;;;;;5054427;28;20036;-68
2024/01/09 09:06:14;;;;;;;5.90;2.47;;;;;;;;;;5055095;28;20115;-68
2024/01/09 09:08:40;;;;;;;8.00;2.85;;;;;;;;;;5054309;28;20043;-68
2024/01/09 09:11:10;;;;;;;6.45;3.00;;;;;;;;;;5054147;28;20978;-68
2024/01/09 09:13:36;;;;;;;6.60;2.83;;;;;;;;;;5068817;28;20036;-68
2024/01/09 09:16:02;;;;;;;6.57;2.55;;;;;;;;;;5056101;28;20085;-68
2024/01/09 09:18:28;;;;;;;6.07;3.03;;;;;;;;;;5054729;28;20032;-68
2024/01/09 09:20:54;;;;;;;5.60;2.22;;;;;;;;;;5055398;28;20567;-68
2024/01/09 09:23:20;;;;;;;6.47;2.78;;;;;;;;;;5054334;28;20036;-68
2024/01/09 09:25:46;;;;;;;9.48;2.33;;;;;;;;;;5056641;28;20032;-68
2024/01/09 09:28:13;;;;;;;6.32;2.38;;;;;;;;;;5056913;28;20033;-68
2024/01/09 09:30:39;;;;;;;7.50;2.75;;;;;;;;;;5055886;28;20036;-68
2024/01/09 09:33:05;;;;;;;6.00;2.28;;;;;;;;;;5057939;28;20017;-68
2024/01/09 09:35:31;;;;;;;8.90;2.25;;;;;;;;;;5056650;28;20037;-68
2024/01/09 09:37:57;;;;;;;4.57;1.95;;;;;;;;;;5057214;28;20094;-68
2024/01/09 09:40:23;;;;;;;6.07;2.72;;;;;;;;;;5056332;28;20033;-68
2024/01/09 09:42:57;;;;;;;7.97;2.50;;;;;;;;;;5058531;28;20036;-68
2024/01/09 09:45:25;;;;;;;6.45;2.30;;;;;;;;;;5057464;28;20028;-68
2024/01/09 09:47:54;;;;;;;8.65;2.58;;;;;;;;;;5057250;28;20056;-68
2024/01/09 09:50:21;;;;;;;6.55;2.53;;;;;;;;;;5057411;28;20025;-68
2024/01/09 09:52:47;;;;;;;6.13;2.40;;;;;;;;;;5057649;28;20123;-67
2024/01/09 09:55:13;;;;;;;5.60;2.67;;;;;;;;;;5056823;28;20523;-67
2024/01/09 09:57:39;;;;;;;7.47;2.53;;;;;;;;;;5054920;28;20614;-67
2024/01/09 10:00:08;;;;;;;5.35;2.08;;;;;;;;;;5055876;28;20043;-67
2024/01/09 10:02:35;;;;;;;6.00;2.33;;;;;;;;;;5052232;28;20047;-67
2024/01/09 10:05:16;;;;;;;5.57;2.17;;;;;;;;;;5055033;28;20925;-67
2024/01/09 10:07:44;;;;;;;8.23;2.30;;;;;;;;;;5056632;28;20032;-67
2024/01/09 10:10:12;;;;;;;5.90;2.30;;;;;;;;;;5055853;28;20037;-67
2024/01/09 10:12:39;;;;;;;4.60;2.03;;;;;;;;;;5055766;28;20095;-67
2024/01/09 10:15:16;;;;;;;6.20;2.10;;;;;;;;;;5056082;28;20033;-67
2024/01/09 10:17:44;;;;;;;5.72;1.90;;;;;;;;;;5054620;28;21465;-67
2024/01/09 10:20:10;;;;;;;6.65;2.50;;;;;;;;;;5054540;28;20047;-67
2024/01/09 10:22:38;;;;;;;4.72;2.28;;;;;;;;;;5054248;28;20043;-67
2024/01/09 10:25:05;;;;;;;4.88;2.22;;;;;;;;;;5054605;28;20032;-67
2024/01/09 10:27:31;;;;;;;4.53;1.88;;;;;;;;;;5054132;28;20071;-67
2024/01/09 10:29:58;;;;;;;6.03;2.08;;;;;;;;;;5050036;28;20036;-67
2024/01/09 10:32:24;;;;;;;4.80;2.00;;;;;;;;;;5052580;28;20078;-67
2024/01/09 10:34:50;;;;;;;4.82;1.60;;;;;;;;;;5052726;28;20106;-67
2024/01/09 10:37:16;;;;;;;4.72;1.90;;;;;;;;;;5051794;28;20045;-67
2024/01/09 10:39:47;;;;;;;3.15;1.65;;;;;;;;;;5051958;28;20044;-67
2024/01/09 10:42:13;;;;;;;5.93;1.80;;;;;;;;;;5051379;28;20736;-67
2024/01/09 10:44:39;;;;;;;4.60;1.70;;;;;;;;;;5051650;28;20178;-67
2024/01/09 10:47:09;;;;;;;5.38;2.05;;;;;;;;;;5051270;28;20059;-67
2024/01/09 10:49:35;;;;;;;5.72;1.95;;;;;;;;;;5050714;28;20024;-67
2024/01/09 10:52:04;;;;;;;3.35;1.55;;;;;;;;;;5049120;28;20225;-67
2024/01/09 10:54:31;;;;;;;4.32;1.60;;;;;;;;;;5050680;28;20632;-67
2024/01/09 10:56:58;;;;;;;7.00;1.83;;;;;;;;;;5052231;28;20043;-67
2024/01/09 10:59:24;;;;;;;3.35;1.20;;;;;;;;;;5054551;28;20028;-67
2024/01/09 11:01:51;;;;;;;5.43;1.73;;;;;;;;;;5061956;28;20037;-67
2024/01/09 11:04:17;;;;;;;5.13;1.85;;;;;;;;;;5052830;28;20565;-67
2024/01/09 11:06:43;;;;;;;6.03;2.25;;;;;;;;;;5052095;28;20032;-67
2024/01/09 11:09:10;;;;;;;4.82;1.73;;;;;;;;;;5054084;28;20112;-67
2024/01/09 11:11:37;;;;;;;6.95;2.03;;;;;;;;;;5054674;28;20059;-67
2024/01/09 11:14:06;;;;;;;4.93;1.50;;;;;;;;;;5053546;28;20081;-67
2024/01/09 11:16:36;;;;;;;4.30;1.80;;;;;;;;;;5053760;28;20029;-67
2024/01/09 11:19:03;;;;;;;4.78;1.73;;;;;;;;;;5053726;28;20179;-68
2024/01/09 11:21:29;;;;;;;4.30;1.90;;;;;;;;;;5069282;28;20029;-67
2024/01/09 11:23:57;;;;;;;4.90;2.00;;;;;;;;;;5052521;28;21040;-67
2024/01/09 11:26:23;;;;;;;5.50;1.80;;;;;;;;;;5053420;28;20029;-67
2024/01/09 11:28:49;;;;;;;5.25;1.83;;;;;;;;;;5054154;28;20395;-67
2024/01/09 11:31:20;;;;;;;6.65;1.88;;;;;;;;;;5051123;28;20043;-67
2024/01/09 11:33:49;;;;;;;4.72;1.92;;;;;;;;;;5053469;28;20040;-67
2024/01/09 11:36:21;;;;;;;5.30;1.98;;;;;;;;;;5053014;28;20147;-67
2024/01/09 11:38:49;;;;;;;4.57;1.80;;;;;;;;;;5053246;28;20033;-67
2024/01/09 11:41:15;;;;;;;4.75;1.73;;;;;;;;;;5053765;28;20379;-67
2024/01/09 11:43:57;;;;;;;4.25;1.77;;;;;;;;;;5051975;28;20036;-67
2024/01/09 11:46:24;;;;;;;5.45;1.90;;;;;;;;;;5053730;28;20166;-67
2024/01/09 11:48:50;;;;;;;4.15;1.85;;;;;;;;;;5053024;28;20028;-67
2024/01/09 11:51:17;;;;;;;4.60;1.67;;;;;;;;;;5053478;28;20024;-67
2024/01/09 11:53:43;;;;;;;5.63;2.03;;;;;;;;;;5052353;28;20032;-67
2024/01/09 11:56:12;;;;;;;7.55;1.88;;;;;;;;;;5052930;28;20049;-67
2024/01/09 11:58:38;;;;;;;4.93;1.85;;;;;;;;;;5053141;28;20045;-67
2024/01/09 12:01:05;;;;;;;4.70;1.80;;;;;;;;;;5067716;28;20091;-67
2024/01/09 12:03:33;;;;;;;4.32;1.58;;;;;;;;;;5051591;28;20028;-67
2024/01/09 12:05:59;;;;;;;5.53;2.17;;;;;;;;;;5052351;28;20127;-67
2024/01/09 12:08:25;;;;;;;4.82;1.70;;;;;;;;;;5051671;28;20115;-67
2024/01/09 12:10:51;;;;;;;4.80;1.92;;;;;;;;;;5052397;28;20052;-67
2024/01/09 12:13:17;;;;;;;3.38;1.58;;;;;;;;;;5052447;28;20028;-67
2024/01/09 12:15:43;;;;;;;5.80;2.03;;;;;;;;;;5052923;28;20904;-67
2024/01/09 12:18:09;;;;;;;4.35;1.38;;;;;;;;;;5052611;28;20101;-67
2024/01/09 12:20:36;;;;;;;6.05;1.70;;;;;;;;;;5052484;28;20039;-66
2024/01/09 12:23:03;;;;;;;4.75;1.95;;;;;;;;;;5051298;28;21149;-66
2024/01/09 12:25:29;;;;;;;4.72;1.55;;;;;;;;;;5052782;28;20766;-66
2024/01/09 12:27:56;;;;;;;3.30;1.52;;;;;;;;;;5052219;28;20127;-66
2024/01/09 12:30:23;;;;;;;5.25;2.00;;;;;;;;;;5052192;28;20032;-67
2024/01/09 12:32:49;;;;;;;4.30;1.95;;;;;;;;;;5052545;28;20046;-66
2024/01/09 12:35:16;;;;;;;7.18;2.65;;;;;;;;;;5051840;28;20027;-66
2024/01/09 12:37:42;;;;;;;5.63;2.20;;;;;;;;;;5067270;28;20041;-66
2024/01/09 12:40:15;;;;;;;6.05;3.38;;;;;;;;;;5051970;28;20524;-66
2024/01/09 12:42:41;;;;;;;6.75;2.65;;;;;;;;;;5051924;28;20399;-66
2024/01/09 12:45:10;;;;;;;8.50;3.08;;;;;;;;;;5052446;28;20433;-66
2024/01/09 12:47:36;;;;;;;7.30;3.53;;;;;;;;;;5051475;28;20040;-66
2024/01/09 12:50:04;;;;;;;9.75;2.92;;;;;;;;;;5051843;28;20031;-66
2024/01/09 12:52:30;;;;;;;6.72;3.13;;;;;;;;;;5050704;28;20103;-66
2024/01/09 12:54:56;;;;;;;6.75;3.08;;;;;;;;;;5051969;28;20030;-66
2024/01/09 12:57:22;;;;;;;7.18;3.13;;;;;;;;;;5049986;28;20064;-66
2024/01/09 12:59:49;;;;;;;8.50;3.25;;;;;;;;;;5051640;28;20028;-66
2024/01/09 13:02:15;;;;;;;6.70;3.05;;;;;;;;;;5049836;28;20040;-66
2024/01/09 13:04:41;;;;;;;7.93;3.05;;;;;;;;;;5049497;28;20436;-66
2024/01/09 13:07:07;;;;;;;6.20;3.03;;;;;;;;;;5051700;28;20032;-66
2024/01/09 13:09:33;;;;;;;8.43;3.10;;;;;;;;;;5049585;28;20045;-66
2024/01/09 13:11:59;;;;;;;7.40;3.25;;;;;;;;;;5050466;28;20029;-66
2024/01/09 13:14:26;;;;;;;8.60;2.88;;;;;;;;;;5051447;28;20911;-66
2024/01/09 13:16:52;;;;;;;6.30;3.00;;;;;;;;;;5049289;28;20042;-66
2024/01/09 13:19:19;;;;;;;6.72;2.92;;;;;;;;;;5049618;28;20029;-66
2024/01/09 13:21:45;;;;;;;6.97;2.53;;;;;;;;;;5049582;28;20044;-66
2024/01/09 13:24:12;;;;;;;5.90;2.58;;;;;;;;;;5064692;28;20032;-65
2024/01/09 13:26:39;;;;;;;9.30;3.60;;;;;;;;;;5050728;28;20479;-65
2024/01/09 13:29:06;;;;;;;9.38;3.33;;;;;;;;;;5051055;28;20121;-65
2024/01/09 13:31:32;;;;;;;7.90;3.45;;;;;;;;;;5050799;28;20136;-66
2024/01/09 13:33:58;;;;;;;8.90;3.00;;;;;;;;;;5049091;28;20048;-66
2024/01/09 13:36:25;;;;;;;7.53;2.65;;;;;;;;;;5051491;28;20127;-65
2024/01/09 13:38:51;;;;;;;5.65;2.60;;;;;;;;;;5051168;28;20191;-66
2024/01/09 13:41:17;;;;;;;6.53;2.92;;;;;;;;;;5051360;28;20499;-65
2024/01/09 13:43:43;;;;;;;6.95;3.10;;;;;;;;;;5050644;28;20063;-66
2024/01/09 13:46:14;;;;;;;7.00;3.10;;;;;;;;;;5050198;28;20466;-65
2024/01/09 13:48:40;;;;;;;9.00;2.90;;;;;;;;;;5049526;28;20039;-65
2024/01/09 13:51:07;;;;;;;8.00;2.97;;;;;;;;;;5048941;28;20037;-65
2024/01/09 13:53:33;;;;;;;6.57;2.58;;;;;;;;;;5050885;28;20089;-66
2024/01/09 13:55:59;;;;;;;5.43;2.35;;;;;;;;;;5050546;28;20028;-65
2024/01/09 13:58:25;;;;;;;5.78;1.75;;;;;;;;;;5050679;28;20075;-66
2024/01/09 14:00:51;;;;;;;4.78;1.75;;;;;;;;;;5050613;28;20086;-65
2024/01/09 14:03:18;;;;;;;6.30;2.10;;;;;;;;;;5048409;28;20075;-66
2024/01/09 14:05:45;;;;;;;5.47;2.05;;;;;;;;;;5050735;28;20056;-66
2024/01/09 14:08:11;;;;;;;5.28;2.20;;;;;;;;;;5049566;28;20788;-66
2024/01/09 14:10:37;;;;;;;6.35;2.10;;;;;;;;;;5048999;28;21354;-66
2024/01/09 14:13:03;;;;;;;4.85;1.77;;;;;;;;;;5050077;28;20031;-65
2024/01/09 14:15:29;;;;;;;6.50;2.08;;;;;;;;;;5050320;28;20102;-66
2024/01/09 14:17:55;;;;;;;5.10;2.00;;;;;;;;;;5049152;28;20036;-66
2024/01/09 14:20:24;;;;;;;5.95;2.72;;;;;;;;;;5049214;28;20032;-66
2024/01/09 14:22:50;;;;;;;5.65;2.20;;;;;;;;;;5048446;28;20655;-66
2024/01/09 14:25:16;;;;;;;5.43;2.40;;;;;;;;;;5050244;28;20445;-66
2024/01/09 14:27:42;;;;;;;6.88;2.67;;;;;;;;;;5050690;28;20063;-66
2024/01/09 14:30:08;;;;;;;5.35;2.22;;;;;;;;;;5050080;28;20059;-66
2024/01/09 14:32:36;;;;;;;5.93;2.50;;;;;;;;;;5049763;28;20035;-66
2024/01/09 14:35:02;;;;;;;5.65;2.20;;;;;;;;;;5047269;28;20032;-66
2024/01/09 14:37:28;;;;;;;5.50;2.20;;;;;;;;;;5063400;28;20036;-66
2024/01/09 14:39:55;;;;;;;5.75;2.05;;;;;;;;;;5050166;28;20037;-66